createdAt,value
2017-11-05T00:01:20.186Z,32.20
2017-11-05T00:03:48.192Z,32.37
2017-11-05T00:06:17.720Z,30.30
2017-11-05T00:08:46.738Z,31.90
2017-11-05T00:11:15.329Z,29.80
2017-11-05T00:13:44.167Z,30.07
2017-11-05T00:16:13.031Z,31.90
2017-11-05T00:18:41.785Z,33.17
2017-11-05T00:21:10.500Z,32.17
2017-11-05T00:23:39.067Z,30.27
2017-11-05T00:26:07.684Z,31.50
2017-11-05T00:28:35.751Z,30.33
2017-11-05T00:31:04.063Z,31.37
2017-11-05T00:33:32.801Z,32.10
2017-11-05T00:36:01.296Z,31.80
2017-11-05T00:38:30.031Z,32.40
2017-11-05T00:40:58.779Z,32.23
2017-11-05T00:43:26.830Z,30.97
2017-11-05T00:45:54.960Z,32.80
2017-11-05T00:48:24.283Z,31.10
2017-11-05T00:50:52.907Z,31.90
2017-11-05T00:53:21.476Z,31.77
2017-11-05T00:55:50.087Z,32.10
2017-11-05T00:58:18.096Z,33.50
2017-11-05T01:00:47.002Z,31.03
2017-11-05T01:03:15.011Z,31.50
2017-11-05T01:05:43.065Z,31.00
2017-11-05T01:08:11.931Z,31.67
2017-11-05T01:10:41.311Z,34.90
2017-11-05T01:13:10.114Z,31.00
2017-11-05T01:15:39.023Z,32.00
2017-11-05T01:18:07.086Z,31.23
2017-11-05T01:20:36.599Z,33.93
2017-11-05T01:23:05.478Z,31.60
2017-11-05T01:25:34.679Z,32.53
2017-11-05T01:28:03.431Z,33.77
2017-11-05T01:30:31.611Z,33.37
2017-11-05T01:32:59.824Z,31.00
2017-11-05T01:35:28.519Z,32.60
2017-11-05T01:37:57.024Z,32.77
2017-11-05T01:40:25.048Z,32.00
2017-11-05T01:42:54.439Z,31.47
2017-11-05T01:45:22.611Z,32.77
2017-11-05T01:47:50.720Z,32.43
2017-11-05T01:50:18.735Z,32.20
2017-11-05T01:52:47.387Z,33.80
2017-11-05T01:55:15.456Z,34.03
2017-11-05T01:57:44.188Z,35.40
2017-11-05T02:00:12.444Z,32.57
2017-11-05T02:02:40.517Z,32.17
2017-11-05T02:05:08.762Z,32.23
2017-11-05T02:07:38.432Z,35.80
2017-11-05T02:10:06.915Z,34.40
2017-11-05T02:12:35.442Z,33.93
2017-11-05T02:15:03.631Z,34.17
2017-11-05T02:17:31.692Z,37.00
2017-11-05T02:19:59.784Z,33.20
2017-11-05T02:22:28.044Z,34.70
2017-11-05T02:24:58.127Z,33.70
2017-11-05T02:27:26.747Z,32.83
2017-11-05T02:29:55.447Z,33.70
2017-11-05T02:32:23.536Z,33.13
2017-11-05T02:34:51.672Z,34.67
2017-11-05T02:37:20.757Z,36.77
2017-11-05T02:39:49.609Z,33.23
2017-11-05T02:42:17.631Z,34.80
2017-11-05T02:44:46.627Z,34.60
2017-11-05T02:47:15.550Z,35.30
2017-11-05T02:49:43.635Z,35.60
2017-11-05T02:52:12.028Z,35.17
2017-11-05T02:54:40.418Z,35.50
2017-11-05T02:57:08.908Z,35.20
2017-11-05T02:59:38.003Z,37.40
2017-11-05T03:02:06.071Z,31.93
2017-11-05T03:04:34.155Z,33.80
2017-11-05T03:07:02.423Z,32.97
2017-11-05T03:09:31.055Z,35.03
2017-11-05T03:11:59.479Z,33.53
2017-11-05T03:14:28.675Z,34.23
2017-11-05T03:16:56.736Z,36.07
2017-11-05T03:19:24.924Z,35.57
2017-11-05T03:21:53.228Z,33.90
2017-11-05T03:24:21.432Z,32.23
2017-11-05T03:26:50.327Z,31.33
2017-11-05T03:29:19.111Z,32.00
2017-11-05T03:31:47.815Z,30.27
2017-11-05T03:34:15.943Z,32.03
2017-11-05T03:36:45.575Z,31.23
2017-11-05T03:39:14.436Z,31.33
2017-11-05T03:41:43.271Z,31.80
2017-11-05T03:44:12.243Z,29.03
2017-11-05T03:46:41.195Z,30.10
2017-11-05T03:49:09.319Z,28.33
2017-11-05T03:51:38.491Z,28.70
2017-11-05T03:54:06.751Z,27.20
2017-11-05T03:56:35.272Z,26.43
2017-11-05T03:59:04.756Z,24.97
2017-11-05T04:01:33.364Z,25.57
2017-11-05T04:04:02.255Z,24.73
2017-11-05T04:06:31.376Z,24.40
2017-11-05T04:09:00.411Z,24.93
2017-11-05T04:11:29.093Z,23.07
2017-11-05T04:13:57.844Z,24.63
2017-11-05T04:16:26.393Z,22.77
2017-11-05T04:18:54.667Z,23.60
2017-11-05T04:21:23.016Z,20.90
2017-11-05T04:23:51.615Z,20.73
2017-11-05T04:26:20.360Z,19.83
2017-11-05T04:28:49.065Z,21.37
2017-11-05T04:31:17.727Z,19.47
2017-11-05T04:33:46.632Z,19.07
2017-11-05T04:36:14.959Z,21.13
2017-11-05T04:38:44.044Z,20.83
2017-11-05T04:41:12.583Z,21.60
2017-11-05T04:43:42.379Z,23.00
2017-11-05T04:46:11.760Z,22.10
2017-11-05T04:48:39.832Z,22.63
2017-11-05T04:51:08.003Z,21.00
2017-11-05T04:53:36.152Z,21.20
2017-11-05T04:56:04.952Z,21.83
2017-11-05T04:58:33.804Z,22.37
2017-11-05T05:01:03.149Z,23.80
2017-11-05T05:03:31.791Z,23.47
2017-11-05T05:06:01.263Z,22.97
2017-11-05T05:08:29.439Z,24.30
2017-11-05T05:10:57.966Z,23.83
2017-11-05T05:13:26.211Z,23.30
2017-11-05T05:15:55.397Z,22.37
2017-11-05T05:18:24.395Z,22.70
2017-11-05T05:20:52.768Z,22.40
2017-11-05T05:23:20.820Z,22.50
2017-11-05T05:25:49.719Z,21.47
2017-11-05T05:28:18.331Z,23.47
2017-11-05T05:30:48.087Z,24.20
2017-11-05T05:33:16.832Z,24.43
2017-11-05T05:35:45.124Z,22.67
2017-11-05T05:38:14.132Z,22.60
2017-11-05T05:40:43.811Z,23.23
2017-11-05T05:43:13.492Z,23.20
2017-11-05T05:45:42.239Z,22.37
2017-11-05T05:48:11.403Z,22.33
2017-11-05T05:50:39.588Z,22.63
2017-11-05T05:53:07.696Z,22.80
2017-11-05T05:55:35.852Z,22.20
2017-11-05T05:58:05.032Z,21.60
2017-11-05T06:00:34.855Z,21.40
2017-11-05T06:03:03.768Z,21.90
2017-11-05T06:05:32.040Z,22.23
2017-11-05T06:08:00.892Z,22.47
2017-11-05T06:10:29.144Z,21.80
2017-11-05T06:12:57.907Z,21.30
2017-11-05T06:15:26.804Z,21.83
2017-11-05T06:17:55.387Z,22.67
2017-11-05T06:20:24.111Z,21.70
2017-11-05T06:22:52.403Z,22.23
2017-11-05T06:25:20.667Z,23.53
2017-11-05T06:27:49.619Z,22.50
2017-11-05T06:30:18.263Z,22.17
2017-11-05T06:32:46.367Z,21.93
2017-11-05T06:35:15.312Z,21.93
2017-11-05T06:37:43.566Z,20.80
2017-11-05T06:40:11.871Z,21.57
2017-11-05T06:42:40.323Z,21.23
2017-11-05T06:45:08.775Z,20.30
2017-11-05T06:47:38.405Z,21.33
2017-11-05T06:50:06.698Z,21.77
2017-11-05T06:52:34.861Z,21.00
2017-11-05T06:55:03.056Z,19.97
2017-11-05T06:57:31.332Z,20.30
2017-11-05T06:59:59.588Z,21.50
2017-11-05T07:02:28.640Z,21.97
2017-11-05T07:04:56.907Z,22.30
2017-11-05T07:07:25.127Z,20.77
2017-11-05T07:09:54.012Z,21.60
2017-11-05T07:12:23.525Z,20.70
2017-11-05T07:14:54.012Z,20.47
2017-11-05T07:17:22.778Z,22.20
2017-11-05T07:19:51.540Z,20.60
2017-11-05T07:22:19.756Z,20.80
2017-11-05T07:24:48.095Z,22.13
2017-11-05T07:27:16.512Z,20.70
2017-11-05T07:29:44.690Z,20.87
2017-11-05T07:32:13.464Z,20.50
2017-11-05T07:34:43.192Z,19.97
2017-11-05T07:37:11.296Z,20.50
2017-11-05T07:39:39.469Z,18.77
2017-11-05T07:42:07.671Z,19.80
2017-11-05T07:44:37.392Z,18.30
2017-11-05T07:47:05.711Z,17.87
2017-11-05T07:49:34.976Z,18.10
2017-11-05T07:52:03.076Z,18.93
2017-11-05T07:54:31.188Z,20.13
2017-11-05T07:56:59.407Z,17.90
2017-11-05T07:59:28.195Z,18.43
2017-11-05T08:01:56.891Z,17.60
2017-11-05T08:04:25.713Z,17.57
2017-11-05T08:06:54.382Z,16.90
2017-11-05T08:09:22.632Z,16.37
2017-11-05T08:11:51.069Z,17.03
2017-11-05T08:14:19.251Z,16.03
2017-11-05T08:16:48.929Z,16.60
2017-11-05T08:19:17.589Z,15.90
2017-11-05T08:21:46.427Z,16.77
2017-11-05T08:24:14.708Z,17.07
2017-11-05T08:26:42.996Z,18.50
2017-11-05T08:29:11.760Z,17.53
2017-11-05T08:31:40.634Z,16.20
2017-11-05T08:34:09.396Z,16.30
2017-11-05T08:36:37.425Z,15.47
2017-11-05T08:39:05.498Z,15.50
2017-11-05T08:41:33.792Z,15.90
2017-11-05T08:44:02.584Z,16.23
2017-11-05T08:46:32.068Z,14.50
2017-11-05T08:49:00.844Z,14.20
2017-11-05T08:51:29.711Z,15.40
2017-11-05T08:53:57.723Z,16.57
2017-11-05T08:56:25.851Z,15.57
2017-11-05T08:58:53.844Z,15.10
2017-11-05T09:01:22.156Z,14.40
2017-11-05T09:03:52.579Z,15.43
2017-11-05T09:06:21.159Z,15.40
2017-11-05T09:08:49.243Z,15.40
2017-11-05T09:11:17.624Z,14.93
2017-11-05T09:13:45.869Z,14.30
2017-11-05T09:16:14.413Z,14.47
2017-11-05T09:18:43.203Z,13.97
2017-11-05T09:21:11.350Z,12.87
2017-11-05T09:23:40.787Z,14.33
2017-11-05T09:26:08.968Z,14.47
2017-11-05T09:28:36.964Z,14.60
2017-11-05T09:31:05.047Z,16.13
2017-11-05T09:33:33.911Z,16.20
2017-11-05T09:36:02.429Z,16.43
2017-11-05T09:38:31.043Z,13.93
2017-11-05T09:40:59.972Z,14.50
2017-11-05T09:43:28.031Z,13.90
2017-11-05T09:45:56.083Z,13.83
2017-11-05T09:48:25.219Z,14.50
2017-11-05T09:50:53.783Z,15.03
2017-11-05T09:53:22.467Z,14.73
2017-11-05T09:55:51.899Z,15.30
2017-11-05T09:58:19.900Z,17.50
2017-11-05T10:00:47.969Z,20.73
2017-11-05T10:03:16.768Z,21.27
2017-11-05T10:05:45.367Z,19.23
2017-11-05T10:08:15.542Z,19.57
2017-11-05T10:10:44.128Z,20.97
2017-11-05T10:13:12.124Z,18.83
2017-11-05T10:15:40.172Z,19.50
2017-11-05T10:18:08.944Z,20.10
2017-11-05T10:20:37.011Z,20.97
2017-11-05T10:23:05.024Z,23.87
2017-11-05T10:25:33.195Z,20.17
2017-11-05T10:28:01.196Z,20.60
2017-11-05T10:30:29.216Z,20.47
2017-11-05T10:32:57.803Z,20.70
2017-11-05T10:35:25.871Z,20.47
2017-11-05T10:37:54.611Z,21.00
2017-11-05T10:40:23.307Z,19.57
2017-11-05T10:42:52.047Z,19.90
2017-11-05T10:45:20.085Z,20.00
2017-11-05T10:47:49.015Z,21.97
2017-11-05T10:50:17.715Z,21.97
2017-11-05T10:52:52.875Z,19.50
2017-11-05T10:55:21.391Z,19.63
2017-11-05T10:57:49.447Z,21.30
2017-11-05T11:00:18.396Z,20.47
2017-11-05T11:02:47.003Z,20.03
2017-11-05T11:05:15.920Z,19.50
2017-11-05T11:07:45.338Z,19.37
2017-11-05T11:10:14.600Z,19.07
2017-11-05T11:12:43.244Z,18.93
2017-11-05T11:15:11.439Z,18.60
2017-11-05T11:17:39.979Z,19.60
2017-11-05T11:20:09.191Z,18.80
2017-11-05T11:22:37.871Z,19.43
2017-11-05T11:25:07.137Z,20.20
2017-11-05T11:27:35.739Z,21.30
2017-11-05T11:30:04.723Z,17.63
2017-11-05T11:32:32.730Z,18.80
2017-11-05T11:35:01.271Z,17.90
2017-11-05T11:37:30.008Z,19.63
2017-11-05T11:39:58.063Z,18.50
2017-11-05T11:42:27.407Z,19.17
2017-11-05T11:44:55.592Z,18.27
2017-11-05T11:47:23.647Z,17.57
2017-11-05T11:49:52.304Z,17.13
2017-11-05T11:52:21.747Z,18.00
2017-11-05T11:54:50.292Z,18.53
2017-11-05T11:57:19.602Z,17.20
2017-11-05T11:59:47.759Z,16.33
2017-11-05T12:02:16.639Z,16.47
2017-11-05T12:04:45.144Z,16.77
2017-11-05T12:07:14.090Z,16.07
2017-11-05T12:09:42.808Z,15.80
2017-11-05T12:12:11.587Z,18.30
2017-11-05T12:14:39.845Z,16.77
2017-11-05T12:17:07.855Z,15.17
2017-11-05T12:19:36.655Z,15.27
2017-11-05T12:22:06.215Z,15.10
2017-11-05T12:24:34.960Z,15.67
2017-11-05T12:27:03.386Z,15.13
2017-11-05T12:29:32.515Z,16.90
2017-11-05T12:32:01.343Z,15.53
2017-11-05T12:34:29.425Z,15.80
2017-11-05T12:36:57.943Z,15.43
2017-11-05T12:39:25.964Z,16.80
2017-11-05T12:41:54.498Z,16.40
2017-11-05T12:44:23.903Z,15.47
2017-11-05T12:46:52.488Z,16.20
2017-11-05T12:49:20.988Z,16.00
2017-11-05T12:51:49.860Z,16.80
2017-11-05T12:54:18.077Z,15.23
2017-11-05T12:56:46.139Z,16.70
2017-11-05T12:59:14.999Z,16.57
2017-11-05T13:01:43.583Z,16.50
2017-11-05T13:04:11.662Z,15.63
2017-11-05T13:06:40.349Z,15.23
2017-11-05T13:09:09.086Z,14.90
2017-11-05T13:11:37.764Z,16.50
2017-11-05T13:14:06.722Z,15.73
2017-11-05T13:16:34.734Z,15.47
2017-11-05T13:19:03.607Z,16.13
2017-11-05T13:21:32.485Z,16.70
2017-11-05T13:24:01.723Z,15.23
2017-11-05T13:26:29.728Z,16.90
2017-11-05T13:28:58.529Z,16.10
2017-11-05T13:31:27.082Z,17.10
2017-11-05T13:33:55.144Z,16.37
2017-11-05T13:36:23.264Z,15.97
2017-11-05T13:38:51.895Z,16.80
2017-11-05T13:41:20.642Z,16.43
2017-11-05T13:43:48.764Z,16.67
2017-11-05T13:46:16.803Z,17.50
2017-11-05T13:48:45.556Z,15.90
2017-11-05T13:51:13.758Z,16.70
2017-11-05T13:53:41.748Z,16.83
2017-11-05T13:56:10.739Z,16.50
2017-11-05T13:58:39.659Z,15.50
2017-11-05T14:01:07.743Z,16.80
2017-11-05T14:03:35.838Z,16.07
2017-11-05T14:06:04.007Z,17.27
2017-11-05T14:08:32.090Z,16.50
2017-11-05T14:11:00.174Z,17.67
2017-11-05T14:13:28.302Z,15.17
2017-11-05T14:15:56.441Z,17.50
2017-11-05T14:18:25.216Z,17.57
2017-11-05T14:20:53.608Z,15.93
2017-11-05T14:23:22.357Z,16.70
2017-11-05T14:25:50.560Z,15.93
2017-11-05T14:28:18.871Z,18.70
2017-11-05T14:30:46.940Z,16.70
2017-11-05T14:33:15.690Z,17.37
2017-11-05T14:35:43.877Z,17.80
2017-11-05T14:38:11.983Z,17.03
2017-11-05T14:40:40.059Z,16.03
2017-11-05T14:43:08.252Z,14.87
2017-11-05T14:45:36.483Z,16.80
2017-11-05T14:48:04.584Z,16.70
2017-11-05T14:50:32.829Z,15.47
2017-11-05T14:53:01.663Z,15.33
2017-11-05T14:55:30.191Z,15.37
2017-11-05T14:57:58.541Z,16.40
2017-11-05T15:00:26.623Z,15.60
2017-11-05T15:02:54.670Z,16.37
2017-11-05T15:05:22.839Z,14.13
2017-11-05T15:07:50.897Z,15.63
2017-11-05T15:10:19.652Z,14.90
2017-11-05T15:12:48.609Z,14.13
2017-11-05T15:15:16.616Z,13.30
2017-11-05T15:17:45.191Z,13.50
2017-11-05T15:20:13.391Z,13.00
2017-11-05T15:22:41.407Z,12.80
2017-11-05T15:25:09.975Z,12.70
2017-11-05T15:27:38.655Z,11.77
2017-11-05T15:30:07.860Z,12.50
2017-11-05T15:32:37.302Z,12.33
2017-11-05T15:35:06.820Z,12.63
2017-11-05T15:37:35.244Z,13.70
2017-11-05T15:40:04.715Z,12.80
2017-11-05T15:42:34.803Z,13.60
2017-11-05T15:45:04.276Z,15.50
2017-11-05T15:47:33.080Z,12.83
2017-11-05T15:50:02.019Z,13.90
2017-11-05T15:52:30.407Z,12.27
2017-11-05T15:54:58.643Z,14.50
2017-11-05T15:57:26.853Z,12.90
2017-11-05T15:59:55.499Z,12.20
2017-11-05T16:02:23.538Z,13.83
2017-11-05T16:04:52.019Z,12.80
2017-11-05T16:07:20.739Z,12.57
2017-11-05T16:09:48.797Z,13.27
2017-11-05T16:12:17.286Z,13.60
2017-11-05T16:14:46.615Z,12.70
2017-11-05T16:17:15.247Z,14.17
2017-11-05T16:19:44.575Z,14.70
2017-11-05T16:22:12.923Z,13.30
2017-11-05T16:24:40.967Z,13.47
2017-11-05T16:27:10.838Z,14.30
2017-11-05T16:29:40.480Z,14.13
2017-11-05T16:32:10.043Z,15.17
2017-11-05T16:34:40.908Z,14.30
2017-11-05T16:37:09.472Z,15.53
2017-11-05T16:39:38.097Z,16.67
2017-11-05T16:42:06.703Z,17.27
2017-11-05T16:44:35.438Z,16.40
2017-11-05T16:47:06.359Z,15.77
2017-11-05T16:49:35.451Z,18.40
2017-11-05T16:52:03.499Z,17.97
2017-11-05T16:54:32.843Z,17.17
2017-11-05T16:57:03.747Z,15.40
2017-11-05T16:59:31.871Z,15.10
2017-11-05T17:02:02.088Z,15.70
2017-11-05T17:04:32.111Z,16.57
2017-11-05T17:07:00.851Z,15.90
2017-11-05T17:09:28.975Z,15.40
2017-11-05T17:11:57.823Z,13.23
2017-11-05T17:14:27.434Z,14.63
2017-11-05T17:16:57.755Z,14.67
2017-11-05T17:19:25.775Z,13.63
2017-11-05T17:21:53.838Z,15.93
2017-11-05T17:24:22.059Z,18.77
2017-11-05T17:26:51.459Z,16.03
2017-11-05T17:29:21.911Z,15.93
2017-11-05T17:31:50.635Z,17.00
2017-11-05T17:34:20.492Z,16.60
2017-11-05T17:36:49.571Z,16.50
2017-11-05T17:39:19.190Z,17.43
2017-11-05T17:41:47.839Z,18.33
2017-11-05T17:44:16.812Z,17.33
2017-11-05T17:46:45.694Z,17.43
2017-11-05T17:49:14.107Z,17.20
2017-11-05T17:51:43.092Z,18.40
2017-11-05T17:54:12.603Z,17.53
2017-11-05T17:56:41.515Z,18.93
2017-11-05T17:59:10.412Z,16.97
2017-11-05T18:01:40.043Z,19.10
2017-11-05T18:04:09.407Z,20.00
2017-11-05T18:06:39.063Z,17.53
2017-11-05T18:09:08.864Z,18.33
2017-11-05T18:11:37.486Z,20.20
2017-11-05T18:14:08.935Z,19.10
2017-11-05T18:16:38.260Z,19.07
2017-11-05T18:19:07.779Z,17.57
2017-11-05T18:21:38.068Z,17.90
2017-11-05T18:24:06.087Z,17.47
2017-11-05T18:26:34.139Z,17.43
2017-11-05T18:29:03.534Z,18.77
2017-11-05T18:31:32.651Z,18.03
2017-11-05T18:34:02.914Z,18.10
2017-11-05T18:36:32.083Z,17.40
2017-11-05T18:39:01.040Z,18.70
2017-11-05T18:41:29.769Z,17.97
2017-11-05T18:43:58.401Z,18.80
2017-11-05T18:46:27.483Z,17.57
2017-11-05T18:48:56.836Z,18.70
2017-11-05T18:51:27.308Z,17.67
2017-11-05T18:53:55.337Z,17.90
2017-11-05T18:56:24.412Z,18.67
2017-11-05T18:58:53.211Z,17.70
2017-11-05T19:01:22.379Z,18.50
2017-11-05T19:03:51.436Z,17.10
2017-11-05T19:06:20.318Z,18.30
2017-11-05T19:08:49.919Z,17.67
2017-11-05T19:11:18.479Z,18.60
2017-11-05T19:13:47.227Z,18.27
2017-11-05T19:16:16.906Z,17.93
2017-11-05T19:18:46.839Z,17.10
2017-11-05T19:21:16.227Z,18.47
2017-11-05T19:23:45.928Z,18.80
2017-11-05T19:26:15.155Z,18.07
2017-11-05T19:28:43.443Z,17.10
2017-11-05T19:31:13.059Z,18.77
2017-11-05T19:33:42.487Z,18.27
2017-11-05T19:36:11.262Z,18.33
2017-11-05T19:38:41.703Z,18.50
2017-11-05T19:41:11.051Z,18.87
2017-11-05T19:43:39.160Z,18.33
2017-11-05T19:46:07.787Z,19.03
2017-11-05T19:48:36.575Z,19.57
2017-11-05T19:51:05.127Z,18.73
2017-11-05T19:53:33.743Z,19.10
2017-11-05T19:56:01.808Z,19.23
2017-11-05T19:58:29.928Z,17.80
2017-11-05T20:00:57.999Z,19.53
2017-11-05T20:03:26.555Z,19.60
2017-11-05T20:05:56.043Z,20.30
2017-11-05T20:08:24.827Z,22.00
2017-11-05T20:10:52.872Z,20.50
2017-11-05T20:13:21.035Z,20.13
2017-11-05T20:15:49.559Z,19.43
2017-11-05T20:18:17.555Z,20.27
2017-11-05T20:20:46.444Z,21.80
2017-11-05T20:23:15.741Z,21.00
2017-11-05T20:25:45.063Z,19.57
2017-11-05T20:28:13.923Z,21.10
2017-11-05T20:30:41.968Z,20.80
2017-11-05T20:33:10.734Z,20.50
2017-11-05T20:35:39.491Z,20.23
2017-11-05T20:38:08.274Z,20.63
2017-11-05T20:40:37.578Z,19.77
2017-11-05T20:43:06.495Z,20.80
2017-11-05T20:45:34.485Z,21.10
2017-11-05T20:48:02.530Z,21.50
2017-11-05T20:50:32.124Z,21.13
2017-11-05T20:53:01.339Z,21.17
2017-11-05T20:55:30.685Z,19.77
2017-11-05T20:57:58.792Z,21.70
2017-11-05T21:00:26.795Z,21.83
2017-11-05T21:02:56.092Z,23.40
2017-11-05T21:05:25.547Z,21.50
2017-11-05T21:07:54.044Z,21.37
2017-11-05T21:10:22.763Z,20.80
2017-11-05T21:12:51.675Z,22.23
2017-11-05T21:15:19.679Z,21.80
2017-11-05T21:17:47.726Z,21.63
2017-11-05T21:20:16.363Z,21.00
2017-11-05T21:22:45.775Z,21.70
2017-11-05T21:25:15.103Z,21.33
2017-11-05T21:27:43.255Z,21.57
2017-11-05T21:30:12.039Z,21.40
2017-11-05T21:32:40.827Z,21.83
2017-11-05T21:35:09.670Z,20.33
2017-11-05T21:37:38.259Z,21.80
2017-11-05T21:40:07.556Z,22.80
2017-11-05T21:42:36.460Z,21.57
2017-11-05T21:45:04.512Z,23.00
2017-11-05T21:47:32.495Z,22.37
2017-11-05T21:50:01.262Z,21.80
2017-11-05T21:52:29.873Z,22.90
2017-11-05T21:54:59.314Z,23.00
2017-11-05T21:57:27.487Z,22.90
2017-11-05T21:59:55.540Z,23.30
2017-11-05T22:02:23.538Z,22.10
2017-11-05T22:04:52.963Z,22.90
2017-11-05T22:07:21.695Z,20.57
2017-11-05T22:09:50.348Z,23.10
2017-11-05T22:12:19.051Z,21.03
2017-11-05T22:14:47.035Z,20.37
2017-11-05T22:17:15.067Z,21.30
2017-11-05T22:19:43.926Z,21.10
2017-11-05T22:22:12.476Z,21.10
2017-11-05T22:24:40.981Z,20.20
2017-11-05T22:27:09.819Z,20.53
2017-11-05T22:29:38.595Z,21.30
2017-11-05T22:32:07.331Z,20.10
2017-11-05T22:34:35.499Z,20.33
2017-11-05T22:37:04.124Z,20.93
2017-11-05T22:39:32.814Z,22.80
2017-11-05T22:42:00.986Z,21.37
2017-11-05T22:44:29.587Z,20.60
2017-11-05T22:46:58.330Z,20.20
2017-11-05T22:49:26.434Z,20.53
2017-11-05T22:51:54.416Z,20.40
2017-11-05T22:54:23.029Z,20.13
2017-11-05T22:56:51.799Z,21.80
2017-11-05T22:59:20.530Z,20.27
2017-11-05T23:01:48.575Z,21.50
2017-11-05T23:04:17.432Z,20.47
2017-11-05T23:06:46.227Z,22.03
2017-11-05T23:09:14.975Z,20.23
2017-11-05T23:11:43.590Z,20.13
2017-11-05T23:14:12.367Z,21.57
2017-11-05T23:16:40.358Z,21.33
2017-11-05T23:19:08.559Z,20.27
2017-11-05T23:21:37.803Z,22.37
2017-11-05T23:24:06.435Z,21.20
2017-11-05T23:26:35.852Z,21.40
2017-11-05T23:29:05.104Z,20.63
2017-11-05T23:31:33.099Z,19.70
2017-11-05T23:34:01.220Z,21.50
2017-11-05T23:36:29.290Z,20.13
2017-11-05T23:38:57.855Z,20.33
2017-11-05T23:41:27.224Z,22.63
2017-11-05T23:43:55.752Z,20.10
2017-11-05T23:46:23.811Z,20.90
2017-11-05T23:48:52.668Z,20.70
2017-11-05T23:51:20.659Z,20.90
2017-11-05T23:53:49.932Z,19.97
2017-11-05T23:56:18.894Z,20.57
2017-11-05T23:58:47.302Z,21.13
